Date,TemperatureHighF,TemperatureAvgF,TemperatureLowF,DewpointHighF,DewpointAvgF,DewpointLowF,HumidityHigh,HumidityAvg,HumidityLow,PressureMaxIn,PressureMinIn,WindSpeedMaxMPH,WindSpeedAvgMPH,GustSpeedMaxMPH,PrecipitationSumIn
2013-1-1,50.3,35.6,26.8,34.9,28.6,22.7,92,77,47,30.16,30.01,1,0,2,0.05
2013-1-2,39.7,36.1,34.8,36.7,30.8,-99.9,93,89,89,30.47,30.02,2,-23,5,0.19
2013-1-3,48.2,35.5,29.0,39.7,32.0,27.1,94,88,66,30.59,30.48,1,0,2,0.01
2013-1-4,56.7,39.6,31.5,42.5,34.3,29.0,91,82,55,30.52,30.28,1,0,5,0.01
2013-1-5,61.8,44.2,36.2,43.3,35.7,31.5,84,73,47,30.26,30.08,2,0,4,0.00
2013-1-6,65.2,44.3,36.2,41.8,34.1,21.1,85,71,19,30.23,29.98,9,1,18,0.00
2013-1-7,60.3,41.9,33.8,36.8,31.7,27.4,84,69,35,30.27,30.05,3,0,6,0.00
2013-1-8,47.6,38.5,31.3,39.0,34.3,27.9,90,85,72,30.33,30.22,2,0,4,0.00
2013-1-9,40.9,39.4,35.2,36.7,34.7,31.4,89,83,79,30.23,30.09,1,0,4,0.00
2013-1-10,46.9,37.7,32.4,37.3,33.4,29.8,92,85,67,30.08,29.80,2,0,4,0.00
2013-1-11,45.9,35.3,29.3,37.2,31.8,27.0,92,87,70,29.94,29.73,3,0,6,0.00
2013-1-12,44.5,32.7,25.7,33.6,27.2,20.8,92,81,51,30.03,29.93,3,0,6,0.01
2013-1-13,39.1,35.2,33.0,35.1,32.3,29.8,96,89,84,29.98,29.74,1,0,2,0.04
2013-1-14,37.5,35.1,33.6,34.7,32.8,31.5,92,91,89,29.82,29.71,1,0,3,0.08
2013-1-15,37.4,34.7,32.3,34.4,32.4,30.2,92,91,86,29.80,29.59,2,0,3,0.05
2013-1-16,36.3,33.2,31.8,32.7,30.8,29.5,93,91,84,29.58,29.40,1,0,3,0.15
2013-1-17,38.3,30.5,25.0,30.0,26.8,21.9,92,86,69,29.62,29.41,2,0,3,0.06
2013-1-18,42.2,27.8,20.8,27.9,21.7,17.5,87,79,46,29.65,29.55,2,0,3,0.03
2013-1-19,36.2,30.1,24.6,29.5,25.6,20.8,92,83,68,29.59,29.54,1,0,1,0.00
2013-1-20,34.4,33.2,31.5,32.6,31.2,29.4,93,92,92,29.56,29.43,0,0,2,0.36
2013-1-21,40.3,36.2,34.0,38.4,34.4,32.2,94,93,92,29.43,29.36,0,0,2,0.59
2013-1-22,43.6,37.2,33.6,38.0,34.5,31.3,94,90,79,29.71,29.41,4,0,9,0.04
2013-1-23,44.9,34.7,27.4,33.4,29.9,25.0,92,83,56,29.78,29.69,1,0,3,0.01
2013-1-24,48.7,35.3,29.2,33.8,29.5,26.4,89,81,52,29.69,29.49,1,0,5,0.00
2013-1-25,45.3,34.1,26.2,32.2,28.4,23.3,90,80,58,29.85,29.65,4,0,6,0.01
2013-1-26,40.1,33.9,27.4,31.7,28.2,24.0,88,80,64,30.00,29.80,2,0,6,0.00
2013-1-27,45.0,32.1,23.0,29.6,25.0,19.4,88,76,47,30.00,29.88,2,0,3,0.01
2013-1-28,36.2,33.5,30.3,32.9,30.0,27.7,92,87,78,30.26,29.84,1,0,1,0.12
2013-1-29,46.3,33.9,27.2,36.6,30.2,25.4,93,87,68,30.28,30.14,2,0,3,0.02
2013-1-30,52.4,36.8,29.1,39.0,31.8,26.8,91,83,52,30.18,30.02,2,0,4,0.01
2013-1-31,58.8,39.3,29.6,37.5,31.3,26.8,92,76,38,30.20,30.03,2,0,6,0.01
2013-2-1,47.7,35.2,30.0,35.0,30.2,25.8,92,82,53,30.02,29.54,3,0,11,0.01
2013-2-2,39.9,37.5,35.5,37.8,35.3,32.6,93,91,83,29.53,29.20,3,0,12,0.28
2013-2-3,49.3,36.7,29.3,32.4,23.3,10.4,92,64,21,30.09,29.47,8,1,23,0.00
2013-2-4,53.3,36.0,26.1,30.5,22.9,17.9,81,62,31,30.07,29.96,3,0,5,0.00
2013-2-5,42.6,35.6,29.0,33.6,28.9,24.3,87,77,64,30.04,29.55,2,0,3,0.02
2013-2-6,48.5,38.4,31.8,34.0,30.4,24.9,91,75,40,29.55,29.39,4,0,6,0.04
2013-2-7,46.9,37.4,30.9,31.8,23.4,8.3,88,62,25,29.78,29.51,5,0,11,0.00
2013-2-8,44.2,31.7,23.0,21.0,15.8,9.3,73,54,25,29.88,29.76,4,0,7,0.00
2013-2-9,41.9,29.5,22.8,19.7,15.6,11.4,72,58,30,29.94,29.87,9,0,11,0.00
2013-2-10,37.6,26.9,17.3,17.5,12.4,7.0,75,57,30,30.00,29.88,4,1,7,0.00
2013-2-11,30.0,28.5,26.2,27.7,23.2,17.0,91,81,63,29.88,29.51,1,0,1,0.00
2013-2-12,36.5,32.2,28.6,32.6,29.5,26.3,92,90,83,29.81,29.50,1,0,2,0.23
2013-2-13,45.9,30.7,20.9,30.5,24.1,18.4,91,78,44,30.03,29.81,2,0,5,0.13
2013-2-14,49.6,34.0,23.6,28.1,23.8,20.0,92,69,33,30.13,30.00,10,0,12,0.01
2013-2-15,46.6,35.8,29.7,31.0,27.0,24.5,85,71,47,30.09,29.96,6,0,14,0.00
2013-2-16,48.4,36.5,30.2,34.0,29.3,26.1,86,76,54,30.18,30.09,8,0,17,0.00
2013-2-17,38.3,34.2,32.7,34.8,29.6,-99.9,92,86,80,30.16,30.07,3,-12,25,0.18
2013-2-18,43.8,34.5,27.7,34.4,29.7,24.6,92,83,58,30.12,30.01,9,1,13,0.02
2013-2-19,45.5,33.2,23.7,31.9,26.7,20.8,90,78,56,30.10,29.88,10,1,16,0.01
2013-2-20,46.6,35.2,27.1,34.4,29.9,24.3,89,81,61,29.93,29.87,11,1,19,0.00
2013-2-21,36.1,32.3,28.4,32.3,29.4,25.8,91,89,85,29.90,29.77,7,1,15,0.15
2013-2-22,34.3,30.0,27.9,29.1,26.6,25.3,91,87,76,29.78,29.61,6,1,11,0.17
2013-2-23,36.5,30.6,23.4,29.1,26.2,20.6,91,84,68,29.67,29.49,5,0,9,0.06
2013-2-24,36.3,32.5,30.7,33.1,30.1,28.4,92,91,87,29.85,29.51,2,0,4,0.24
2013-2-25,40.2,33.7,29.5,35.7,30.7,27.5,92,89,78,30.17,29.84,5,0,10,0.24
2013-2-26,50.3,35.0,23.4,33.5,27.4,20.9,92,76,45,30.19,30.11,3,0,5,0.01
2013-2-27,50.1,37.7,29.1,33.4,30.2,25.4,87,75,51,30.25,30.14,7,0,10,0.00
2013-2-28,50.0,40.1,32.8,39.2,34.6,29.9,92,81,65,30.27,30.19,5,0,6,0.00
2013-3-1,53.3,40.3,29.5,40.3,34.3,27.4,92,80,56,30.20,30.03,7,1,12,0.01
2013-3-2,52.6,42.8,33.1,39.0,36.0,30.2,92,78,56,30.12,30.01,5,1,10,0.00
2013-3-3,56.6,43.0,33.4,40.9,35.2,30.5,92,76,49,30.09,29.98,7,1,15,0.00
2013-3-4,57.9,41.7,31.0,39.7,33.0,28.4,90,74,45,30.21,30.07,7,1,7,0.00
2013-3-5,51.7,40.7,30.5,32.7,29.5,26.1,86,66,42,30.21,30.07,4,0,12,0.00
2013-3-6,43.7,41.1,37.6,41.3,37.4,31.7,93,87,69,30.07,29.74,4,0,5,0.43
2013-3-7,50.3,45.0,41.0,46.8,42.7,39.1,93,92,87,29.74,29.67,1,0,3,0.16
2013-3-8,50.2,47.5,43.6,47.4,45.3,42.0,94,92,89,29.66,29.61,3,0,4,0.16
2013-3-9,53.8,46.5,39.7,48.0,43.2,38.0,94,88,75,29.64,29.56,5,0,7,0.14
2013-3-10,57.4,46.9,39.2,45.1,41.4,37.3,94,82,54,29.57,29.44,10,1,18,0.01
2013-3-11,55.9,45.0,36.6,43.9,39.7,34.5,93,82,62,29.52,29.44,10,1,15,0.06
2013-3-12,48.0,41.8,38.2,41.8,38.6,35.8,95,88,77,29.52,29.41,2,0,10,0.28
2013-3-13,51.7,41.4,36.4,42.5,37.3,34.0,93,86,68,29.45,29.34,11,1,13,0.02
2013-3-14,51.9,40.8,33.0,37.1,26.7,8.5,92,62,30,29.44,29.25,6,1,11,0.01
2013-3-15,47.6,36.6,26.6,19.7,11.1,5.1,62,37,18,29.96,29.44,7,2,10,0.00
2013-3-16,44.9,33.8,22.3,26.5,18.6,9.2,72,55,30,30.11,29.96,10,2,19,0.00
2013-3-17,36.3,33.8,32.2,32.9,29.6,26.2,92,85,69,30.06,29.78,2,0,6,0.14
2013-3-18,35.5,33.3,32.0,33.0,31.2,29.9,93,92,90,29.77,29.26,5,0,10,0.76
2013-3-19,53.8,39.0,27.8,38.5,31.3,25.8,93,76,45,29.71,29.37,3,0,7,0.63
2013-3-20,47.5,37.6,29.7,38.0,32.2,26.6,92,82,56,29.81,29.69,2,0,6,0.06
2013-3-21,60.9,42.8,29.3,34.0,27.4,19.0,93,62,21,29.92,29.78,4,1,5,0.01
2013-3-22,56.6,43.0,30.3,34.6,28.6,23.5,80,60,31,29.92,29.83,6,1,11,0.00
2013-3-23,53.8,44.4,34.4,39.9,35.7,30.0,87,73,53,29.91,29.82,6,1,10,0.00
2013-3-24,44.9,42.8,40.1,42.1,40.2,38.0,92,90,86,29.82,29.68,1,0,3,0.59
2013-3-25,40.2,38.2,36.0,38.0,36.2,33.9,93,92,90,29.67,29.52,3,1,9,0.15
2013-3-26,37.2,34.6,32.3,33.8,32.0,30.2,92,90,86,29.69,29.55,3,0,6,0.06
2013-3-27,42.8,37.8,34.9,35.2,32.9,31.1,92,82,69,29.87,29.68,3,0,6,0.00
2013-3-28,41.5,38.5,36.3,35.1,34.0,33.1,89,84,76,29.92,29.86,1,0,3,0.00
2013-3-29,50.1,44.5,36.5,41.2,39.5,34.1,92,83,68,29.74,29.64,3,0,4,0.09
2013-3-30,44.2,41.9,39.3,41.7,39.7,37.2,98,92,89,29.68,29.40,2,0,3,0.41
2013-3-31,57.4,44.9,34.3,43.7,37.3,32.5,94,77,48,29.60,29.37,8,2,14,0.02
2013-4-1,45.7,41.0,35.2,38.1,36.2,32.3,90,83,71,29.70,29.60,6,1,11,0.00
2013-4-2,52.5,45.1,37.0,41.4,38.4,34.1,90,78,59,29.65,29.52,6,1,10,0.00
2013-4-3,57.7,48.8,42.3,41.8,39.4,36.4,85,71,49,29.71,29.60,7,1,9,0.00
2013-4-4,54.2,46.2,38.6,41.9,39.4,35.5,91,78,56,29.75,29.67,5,1,7,0.07
2013-4-5,48.9,44.6,42.3,45.5,41.5,39.9,92,89,83,29.70,29.48,7,1,11,0.25
2013-4-6,55.7,47.5,39.1,45.3,42.0,36.8,93,82,67,29.88,29.69,6,1,10,0.07
2013-4-7,49.6,46.4,44.4,44.6,42.1,39.5,92,85,73,29.89,29.82,2,0,4,0.13
2013-4-8,44.9,41.1,38.9,40.2,36.7,34.1,91,84,74,29.89,29.75,3,0,6,0.16
2013-4-9,51.1,42.9,39.0,41.7,38.7,36.3,91,85,61,29.82,29.75,6,1,12,0.06
2013-4-10,60.5,47.4,34.3,45.5,40.3,32.2,93,78,56,29.93,29.80,7,1,10,0.01
2013-4-11,43.8,42.6,41.9,40.5,39.4,38.6,89,88,88,29.94,29.92,1,0,3,0.00
2013-4-15,67.9,67.9,67.9,49.6,49.6,49.6,52,52,52,30.18,30.18,0,0,0,0.00
2013-4-16,70.3,63.8,54.2,53.4,50.7,46.8,77,63,54,30.20,30.09,6,2,15,0.00
2013-4-17,54.0,51.5,48.7,47.1,45.9,44.4,85,81,76,30.23,30.19,1,0,1,0.00